Time;durP1;ratioP1;P1;durP2;ratioP2;P2;SDS_P1;SDS_P2;PMS_P1;PMS_P2;Temp;Humidity;BMP_temperature;BMP_pressure;BME280_temperature;BME280_humidity;BME280_pressure;Samples;Min_cycle;Max_cycle;Signal;HPM_P1;HPM_P2
2022/10/18 00:00:35;;;;;;;14.43;8.30;;;;;;;16.40;100.00;100984.25;5064840;28;20262;-70
2022/10/18 00:03:00;;;;;;;10.33;7.80;;;;;;;16.35;100.00;100974.16;5083276;28;20184;-70
2022/10/18 00:05:25;;;;;;;10.53;7.80;;;;;;;16.27;100.00;100981.59;5071352;28;20188;-70
2022/10/18 00:07:50;;;;;;;11.87;8.00;;;;;;;16.28;100.00;100978.91;5070529;28;20201;-70
2022/10/18 00:10:16;;;;;;;13.73;8.00;;;;;;;16.29;100.00;100980.56;5062748;28;20196;-70
2022/10/18 00:12:41;;;;;;;10.03;7.23;;;;;;;16.35;100.00;100976.75;5104658;28;20252;-71
2022/10/18 00:15:07;;;;;;;11.30;7.70;;;;;;;16.41;100.00;100975.50;5091326;28;20262;-70
2022/10/18 00:17:34;;;;;;;12.73;8.13;;;;;;;16.44;100.00;100968.34;5090889;28;20253;-70
2022/10/18 00:19:59;;;;;;;15.83;8.50;;;;;;;16.48;100.00;100974.19;5077480;28;20268;-71
2022/10/18 00:22:25;;;;;;;14.07;8.10;;;;;;;16.33;100.00;100983.81;5096669;28;20303;-71
2022/10/18 00:24:50;;;;;;;12.47;9.03;;;;;;;16.20;100.00;100981.19;5091328;28;20185;-71
2022/10/18 00:27:16;;;;;;;11.80;8.03;;;;;;;16.25;100.00;100984.31;5076161;28;20231;-71
2022/10/18 00:29:41;;;;;;;12.80;7.90;;;;;;;16.19;100.00;100976.09;5090903;28;20568;-71
2022/10/18 00:32:06;;;;;;;16.13;9.20;;;;;;;16.12;100.00;100970.44;5096793;28;20271;-71
2022/10/18 00:34:31;;;;;;;18.67;8.77;;;;;;;16.27;100.00;100972.06;5091305;28;20187;-71
2022/10/18 00:36:57;;;;;;;14.53;8.53;;;;;;;16.26;100.00;100979.94;5076777;28;20662;-71
2022/10/18 00:39:22;;;;;;;13.77;9.17;;;;;;;16.16;100.00;100973.69;5091355;28;20187;-71
2022/10/18 00:41:48;;;;;;;11.60;8.07;;;;;;;16.23;100.00;100972.34;5094500;28;20219;-71
2022/10/18 00:44:13;;;;;;;13.93;8.33;;;;;;;16.38;100.00;100967.94;5092758;28;20753;-71
2022/10/18 00:46:41;;;;;;;14.63;8.20;;;;;;;16.49;100.00;100962.03;5090533;28;20290;-71
2022/10/18 00:49:13;;;;;;;12.13;8.30;;;;;;;16.45;100.00;100959.63;5093055;28;20273;-71
2022/10/18 00:51:54;;;;;;;12.77;8.70;;;;;;;16.46;100.00;100960.47;5097167;28;20364;-71
2022/10/18 00:54:20;;;;;;;13.77;9.03;;;;;;;16.57;100.00;100965.78;5096099;28;20282;-71
2022/10/18 00:56:45;;;;;;;18.13;9.63;;;;;;;16.58;100.00;100961.41;5094454;28;20214;-70
2022/10/18 00:59:13;;;;;;;16.10;8.70;;;;;;;16.61;100.00;100964.66;5094807;28;20188;-70
2022/10/18 01:01:38;;;;;;;10.40;8.50;;;;;;;16.62;100.00;100961.13;5097056;28;20227;-71
2022/10/18 01:04:04;;;;;;;14.17;9.10;;;;;;;16.58;100.00;100961.41;5097819;28;20541;-71
2022/10/18 01:06:29;;;;;;;13.20;8.23;;;;;;;16.51;100.00;100961.00;5094490;28;20218;-70
2022/10/18 01:09:04;;;;;;;14.80;8.73;;;;;;;16.38;100.00;100958.38;5110602;28;20195;-70
2022/10/18 01:11:42;;;;;;;11.10;9.00;;;;;;;16.40;100.00;100968.66;5081687;28;20245;-71
2022/10/18 01:14:16;;;;;;;12.70;9.07;;;;;;;16.23;100.00;100964.56;5092958;28;20172;-70
2022/10/18 01:17:27;;;;;;;11.67;9.20;;;;;;;16.18;100.00;100956.25;5094112;28;20172;-71
2022/10/18 01:20:26;;;;;;;17.07;9.07;;;;;;;16.14;100.00;100963.41;5094944;28;20354;-71
2022/10/18 01:23:25;;;;;;;14.20;9.50;;;;;;;16.18;100.00;100951.06;5082746;28;20212;-70
2022/10/18 01:26:14;;;;;;;15.03;9.20;;;;;;;16.21;100.00;100948.25;5091063;28;20184;-71
2022/10/18 01:29:09;;;;;;;15.00;10.03;;;;;;;16.20;100.00;100959.56;5093659;28;20183;-71
2022/10/18 01:31:41;;;;;;;19.57;9.57;;;;;;;16.18;100.00;100951.06;5103266;28;20635;-71
2022/10/18 01:34:11;;;;;;;12.97;9.47;;;;;;;16.19;100.00;100950.94;5094227;28;20179;-71
2022/10/18 01:36:41;;;;;;;15.50;9.47;;;;;;;15.97;100.00;100947.13;5093770;28;20190;-71
2022/10/18 01:39:11;;;;;;;12.87;9.20;;;;;;;15.90;100.00;100945.03;5094117;28;20180;-71
2022/10/18 01:41:40;;;;;;;18.30;9.47;;;;;;;15.97;100.00;100936.75;5091576;28;20224;-72
2022/10/18 01:44:08;;;;;;;13.80;9.53;;;;;;;15.78;100.00;100931.88;5092548;28;20639;-71
2022/10/18 01:46:34;;;;;;;12.37;9.90;;;;;;;15.75;100.00;100931.25;5093277;28;20210;-71
2022/10/18 01:49:00;;;;;;;14.77;9.37;;;;;;;15.88;100.00;100931.34;5094278;28;20211;-71
2022/10/18 01:51:27;;;;;;;18.27;10.07;;;;;;;16.00;100.00;100940.09;5078596;28;20282;-71
2022/10/18 01:53:53;;;;;;;17.13;9.93;;;;;;;16.07;100.00;100939.59;5093199;28;20176;-71
2022/10/18 01:56:55;;;;;;;15.90;10.30;;;;;;;15.94;100.00;100930.94;5092228;28;20210;-71
2022/10/18 01:59:33;;;;;;;14.30;9.70;;;;;;;15.97;100.00;100922.97;5093488;28;20258;-71
2022/10/18 02:02:36;;;;;;;13.83;9.53;;;;;;;16.04;100.00;100931.16;5098478;28;20227;-71
2022/10/18 02:05:19;;;;;;;14.80;9.43;;;;;;;16.05;100.00;100912.94;5093643;28;20180;-71
2022/10/18 02:08:21;;;;;;;15.37;10.63;;;;;;;15.96;100.00;100908.31;5083447;28;20223;-71
2022/10/18 02:10:54;;;;;;;14.53;10.40;;;;;;;15.91;100.00;100903.41;5068173;28;20239;-71
2022/10/18 02:13:22;;;;;;;14.03;10.07;;;;;;;15.98;100.00;100904.69;5093014;28;20191;-71
2022/10/18 02:15:53;;;;;;;17.67;10.73;;;;;;;16.00;100.00;100907.19;5092999;28;20648;-71
2022/10/18 02:18:28;;;;;;;16.83;10.60;;;;;;;16.04;100.00;100911.25;5091916;28;20222;-71
2022/10/18 02:20:53;;;;;;;16.97;11.37;;;;;;;16.14;100.00;100914.09;5086805;28;20275;-71
2022/10/18 02:23:23;;;;;;;13.63;9.77;;;;;;;16.06;100.00;100916.34;5088441;28;20183;-71
2022/10/18 02:25:49;;;;;;;18.17;10.67;;;;;;;16.14;100.00;100925.28;5093358;28;20638;-71
2022/10/18 02:28:15;;;;;;;15.47;10.90;;;;;;;16.17;100.00;100923.44;5092668;28;20180;-71
2022/10/18 02:30:50;;;;;;;24.47;10.80;;;;;;;16.12;100.00;100924.56;5084448;28;20757;-70
2022/10/18 02:33:27;;;;;;;17.23;11.70;;;;;;;16.10;100.00;100917.78;5102873;28;20267;-71
2022/10/18 02:35:59;;;;;;;13.43;10.70;;;;;;;16.17;100.00;100921.66;5092927;28;20188;-71
2022/10/18 02:38:26;;;;;;;12.93;10.03;;;;;;;16.21;100.00;100930.09;5092672;28;20691;-71
2022/10/18 02:40:52;;;;;;;17.03;11.10;;;;;;;16.21;100.00;100930.94;5087865;28;20233;-71
2022/10/18 02:43:17;;;;;;;21.10;12.60;;;;;;;16.14;100.00;100951.25;5080480;28;20180;-71
2022/10/18 02:45:42;;;;;;;17.87;12.37;;;;;;;16.02;100.00;100974.56;5092717;28;20191;-70
2022/10/18 02:48:08;;;;;;;24.23;13.50;;;;;;;15.87;100.00;100977.19;5092476;28;20185;-70
2022/10/18 02:50:33;;;;;;;19.50;15.50;;;;;;;15.82;100.00;100976.66;5086494;28;20270;-70
2022/10/18 02:52:59;;;;;;;14.40;11.33;;;;;;;15.77;100.00;100986.47;5104355;28;20279;-69
2022/10/18 02:55:24;;;;;;;6.53;4.50;;;;;;;15.54;100.00;100991.31;5074430;28;20195;-71
2022/10/18 02:57:49;;;;;;;9.33;3.13;;;;;;;15.17;100.00;100981.41;5091895;28;20291;-72
2022/10/18 03:00:15;;;;;;;5.83;2.57;;;;;;;14.94;100.00;100971.56;5071847;27;20175;-70
2022/10/18 03:02:40;;;;;;;5.90;2.10;;;;;;;14.90;100.00;100975.28;5091460;28;20188;-71
2022/10/18 03:05:05;;;;;;;2.87;2.10;;;;;;;14.90;100.00;100970.09;5092425;28;20186;-71
2022/10/18 03:07:31;;;;;;;2.40;1.37;;;;;;;14.82;100.00;100954.97;5091968;28;20220;-71
2022/10/18 03:09:56;;;;;;;3.50;1.87;;;;;;;14.94;100.00;100956.84;5090738;28;20234;-72
2022/10/18 03:12:21;;;;;;;8.57;2.30;;;;;;;14.91;100.00;100951.88;5096447;28;20337;-70
2022/10/18 03:14:47;;;;;;;6.97;2.10;;;;;;;14.90;100.00;100955.38;5092441;28;20211;-71
2022/10/18 03:17:12;;;;;;;6.47;2.07;;;;;;;14.95;100.00;100948.16;5082834;28;20217;-71
2022/10/18 03:19:37;;;;;;;4.67;2.00;;;;;;;14.88;100.00;100948.63;5086840;28;20184;-71
2022/10/18 03:22:03;;;;;;;5.83;1.63;;;;;;;14.94;100.00;100950.84;5084103;28;20689;-71
2022/10/18 03:24:28;;;;;;;8.23;2.10;;;;;;;14.77;100.00;100952.69;5092220;28;20241;-71
2022/10/18 03:26:53;;;;;;;6.90;2.10;;;;;;;14.84;100.00;100961.75;5091397;28;20211;-71
2022/10/18 03:29:19;;;;;;;5.87;2.13;;;;;;;14.85;100.00;100960.81;5092193;28;20521;-71
2022/10/18 03:31:44;;;;;;;5.53;1.90;;;;;;;14.95;100.00;100950.75;5059868;27;20219;-71
2022/10/18 03:34:09;;;;;;;4.20;2.00;;;;;;;15.01;100.00;100944.38;5092115;28;20180;-71
2022/10/18 03:36:35;;;;;;;6.60;2.23;;;;;;;14.94;100.00;100945.66;5091499;28;20184;-71
2022/10/18 03:39:00;;;;;;;4.43;2.20;;;;;;;14.83;100.00;100935.94;5090486;28;20180;-71
2022/10/18 03:41:26;;;;;;;4.40;2.20;;;;;;;14.82;100.00;100936.84;5086625;28;20880;-71
2022/10/18 03:43:51;;;;;;;5.87;2.20;;;;;;;14.89;100.00;100932.97;5090000;28;20179;-71
2022/10/18 03:46:16;;;;;;;3.90;2.27;;;;;;;14.87;100.00;100919.28;5091202;28;20668;-69
2022/10/18 03:48:42;;;;;;;4.57;2.20;;;;;;;14.84;100.00;100925.47;5092014;28;20183;-69
2022/10/18 03:51:07;;;;;;;7.33;2.40;;;;;;;14.81;100.00;100955.91;5083337;28;20697;-69
2022/10/18 03:53:32;;;;;;;5.03;2.33;;;;;;;14.96;100.00;101003.41;5090527;28;20183;-70
2022/10/18 03:55:58;;;;;;;7.13;2.47;;;;;;;14.98;100.00;101043.00;5091335;28;20191;-69
2022/10/18 03:58:23;;;;;;;4.67;2.43;;;;;;;14.92;100.00;101039.03;5091263;28;20176;-70
2022/10/18 04:00:52;;;;;;;8.37;2.10;;;;;;;14.75;100.00;101006.31;5086394;28;20226;-70
2022/10/18 04:03:20;;;;;;;15.63;2.37;;;;;;;14.75;100.00;100979.56;5100481;28;20176;-68
2022/10/18 04:05:47;;;;;;;4.73;2.47;;;;;;;14.76;100.00;100989.00;5091313;28;20188;-67
2022/10/18 04:08:13;;;;;;;5.13;2.50;;;;;;;14.73;100.00;100995.19;5091192;28;20298;-67
2022/10/18 04:10:38;;;;;;;8.83;2.30;;;;;;;14.74;100.00;101001.22;5085499;28;20230;-67
2022/10/18 04:13:05;;;;;;;4.40;2.60;;;;;;;14.74;100.00;101009.81;5102742;28;20180;-67
2022/10/18 04:15:30;;;;;;;5.47;2.63;;;;;;;14.83;100.00;101004.13;5091278;28;20245;-67
2022/10/18 04:17:56;;;;;;;5.27;2.20;;;;;;;14.95;100.00;101004.34;5076425;28;20180;-67
2022/10/18 04:20:22;;;;;;;3.73;2.33;;;;;;;14.95;100.00;101006.94;5083381;28;20354;-67
2022/10/18 04:22:48;;;;;;;5.47;2.57;;;;;;;15.07;100.00;101003.59;5106016;28;20587;-67
2022/10/18 04:25:14;;;;;;;3.70;2.63;;;;;;;14.84;100.00;101000.59;5095324;28;20639;-67
2022/10/18 04:27:39;;;;;;;7.57;2.93;;;;;;;14.71;100.00;100991.88;5095214;28;20203;-67
2022/10/18 04:30:05;;;;;;;4.03;2.93;;;;;;;14.73;100.00;100984.03;5085111;28;20192;-68
2022/10/18 04:32:30;;;;;;;8.93;3.77;;;;;;;14.80;100.00;100987.94;5094089;28;20207;-67
2022/10/18 04:34:55;;;;;;;7.83;3.13;;;;;;;14.96;100.00;100986.09;5094271;28;20187;-67
2022/10/18 04:37:21;;;;;;;7.23;3.13;;;;;;;14.99;100.00;100985.09;5094699;28;20184;-68
2022/10/18 04:39:47;;;;;;;3.27;2.40;;;;;;;14.98;100.00;100983.41;5095089;28;20195;-67
2022/10/18 04:42:13;;;;;;;6.17;3.00;;;;;;;15.04;100.00;100979.63;5088394;28;20216;-68
2022/10/18 04:44:38;;;;;;;6.77;2.57;;;;;;;14.94;100.00;100984.53;5092967;28;20270;-68
2022/10/18 04:47:03;;;;;;;5.27;2.63;;;;;;;14.91;100.00;100988.13;5094175;28;20218;-68
2022/10/18 04:49:29;;;;;;;8.43;2.97;;;;;;;15.05;100.00;100974.34;5094896;28;20180;-67
2022/10/18 04:51:54;;;;;;;4.67;2.77;;;;;;;15.03;100.00;100973.59;5097756;27;20221;-67
2022/10/18 04:54:19;;;;;;;4.43;2.73;;;;;;;15.06;100.00;100973.44;5098240;28;20196;-67
2022/10/18 04:56:44;;;;;;;4.57;2.60;;;;;;;15.07;100.00;100972.53;5096810;28;20168;-67
2022/10/18 04:59:10;;;;;;;9.93;2.97;;;;;;;15.17;100.00;100965.84;5100026;28;20222;-67
2022/10/18 05:01:35;;;;;;;4.93;3.27;;;;;;;15.02;100.00;100969.38;5096365;28;20215;-67
2022/10/18 05:04:00;;;;;;;6.03;3.30;;;;;;;15.01;100.00;100971.13;5097893;28;20723;-67
2022/10/18 05:06:25;;;;;;;7.50;3.00;;;;;;;14.89;100.00;100971.84;5094268;28;20204;-67
2022/10/18 05:08:51;;;;;;;7.63;3.80;;;;;;;14.93;100.00;100970.72;5094548;28;20540;-68
2022/10/18 05:11:16;;;;;;;4.63;2.77;;;;;;;15.07;100.00;100969.94;5086772;28;20274;-68
2022/10/18 05:13:41;;;;;;;6.50;3.20;;;;;;;15.08;100.00;100971.59;5090673;28;20208;-68
2022/10/18 05:16:06;;;;;;;15.10;3.40;;;;;;;15.20;100.00;100970.00;5089272;28;20655;-68
2022/10/18 05:18:32;;;;;;;6.07;3.00;;;;;;;15.28;100.00;100970.41;5094062;28;20184;-68
2022/10/18 05:20:58;;;;;;;9.10;3.40;;;;;;;15.29;100.00;100972.06;5091196;28;20577;-68
2022/10/18 05:23:23;;;;;;;6.70;2.87;;;;;;;15.21;100.00;100965.66;5102591;28;20180;-68
2022/10/18 05:25:49;;;;;;;7.50;3.43;;;;;;;15.27;100.00;100971.31;5094170;28;20184;-68
2022/10/18 05:28:14;;;;;;;6.17;3.20;;;;;;;15.31;100.00;100967.59;5094024;28;20253;-68
2022/10/18 05:30:40;;;;;;;5.73;3.37;;;;;;;15.37;100.00;100976.78;5088924;28;20468;-68
2022/10/18 05:33:06;;;;;;;10.93;4.40;;;;;;;15.39;100.00;100997.41;5104931;28;20626;-68
2022/10/18 05:35:31;;;;;;;8.10;3.90;;;;;;;15.37;100.00;101007.88;5093272;28;20204;-68
2022/10/18 05:37:57;;;;;;;14.13;3.63;;;;;;;15.40;100.00;101012.88;5093206;28;20210;-68
2022/10/18 05:40:22;;;;;;;6.23;3.63;;;;;;;15.28;100.00;101001.50;5086589;28;20215;-68
2022/10/18 05:42:50;;;;;;;9.70;3.40;;;;;;;15.21;100.00;101005.38;5094969;28;20208;-67
2022/10/18 05:45:16;;;;;;;4.67;2.73;;;;;;;15.07;100.00;101000.16;5086588;28;20569;-67
2022/10/18 05:47:41;;;;;;;5.30;2.40;;;;;;;14.94;100.00;100994.88;5088077;28;20199;-67
2022/10/18 05:50:07;;;;;;;4.83;2.50;;;;;;;15.06;100.00;100991.56;5084015;28;20180;-67
2022/10/18 05:52:32;;;;;;;7.37;3.10;;;;;;;15.13;100.00;100992.03;5108792;28;20226;-67
2022/10/18 05:54:57;;;;;;;6.50;2.53;;;;;;;15.22;100.00;100991.50;5094083;28;20172;-67
2022/10/18 05:57:22;;;;;;;8.53;3.30;;;;;;;15.16;100.00;100981.50;5093672;28;20638;-67
2022/10/18 05:59:48;;;;;;;8.07;3.17;;;;;;;15.16;100.00;100979.72;5093632;28;20184;-67
2022/10/18 06:02:13;;;;;;;4.80;2.67;;;;;;;15.03;100.00;100973.59;5098939;28;20227;-67
2022/10/18 06:04:38;;;;;;;6.43;2.83;;;;;;;15.01;100.00;100978.88;5092364;28;20180;-67
2022/10/18 06:07:08;;;;;;;3.93;2.40;;;;;;;15.10;100.00;100987.03;5092815;28;20200;-67
2022/10/18 06:09:34;;;;;;;7.67;2.70;;;;;;;15.03;100.00;101006.47;5093907;28;20188;-67
2022/10/18 06:11:59;;;;;;;7.40;2.70;;;;;;;15.20;100.00;101008.06;5095364;28;20234;-67
2022/10/18 06:14:24;;;;;;;5.53;2.57;;;;;;;15.09;100.00;100998.31;5093785;28;20695;-67
2022/10/18 06:16:49;;;;;;;5.80;2.70;;;;;;;15.13;100.00;101003.25;5092863;28;20187;-67
2022/10/18 06:19:15;;;;;;;4.53;3.00;;;;;;;15.15;100.00;101014.34;5093393;28;20199;-67
2022/10/18 06:21:41;;;;;;;8.37;3.33;;;;;;;15.04;100.00;101019.31;5095598;27;20234;-67
2022/10/18 06:24:07;;;;;;;6.27;3.10;;;;;;;15.01;100.00;101032.47;5096227;28;20212;-67
2022/10/18 06:26:32;;;;;;;7.20;3.50;;;;;;;15.13;100.00;101031.75;5092880;28;20291;-67
2022/10/18 06:28:57;;;;;;;6.60;3.10;;;;;;;15.25;100.00;101026.75;5093292;28;20258;-67
2022/10/18 06:31:22;;;;;;;4.07;3.00;;;;;;;15.30;100.00;101020.34;5093741;28;20681;-67
2022/10/18 06:33:48;;;;;;;6.87;3.03;;;;;;;15.34;100.00;101021.00;5086056;28;20237;-67
2022/10/18 06:36:15;;;;;;;10.43;3.43;;;;;;;15.40;100.00;101020.66;5092862;28;20180;-67
2022/10/18 06:38:41;;;;;;;7.73;3.20;;;;;;;15.33;100.00;101017.59;5092976;28;20180;-67
2022/10/18 06:41:07;;;;;;;5.20;2.93;;;;;;;15.38;100.00;101016.47;5088190;28;20756;-67
2022/10/18 06:43:33;;;;;;;5.80;3.30;;;;;;;15.33;100.00;101012.41;5091157;28;20180;-67
2022/10/18 06:46:02;;;;;;;5.13;3.10;;;;;;;15.29;100.00;101010.09;5078834;28;20176;-67
2022/10/18 06:48:27;;;;;;;5.93;3.10;;;;;;;15.31;100.00;101013.44;5092562;28;20180;-67
2022/10/18 06:51:00;;;;;;;5.87;3.00;;;;;;;15.38;100.00;101008.72;5088906;28;20278;-67
2022/10/18 06:53:30;;;;;;;6.43;3.40;;;;;;;15.43;100.00;101017.03;5087030;28;20264;-66
2022/10/18 06:56:00;;;;;;;7.73;3.33;;;;;;;15.52;100.00;101020.81;5092683;28;20172;-67
2022/10/18 06:58:25;;;;;;;6.53;4.13;;;;;;;15.63;100.00;101027.03;5092223;28;20335;-67
2022/10/18 07:00:51;;;;;;;5.97;4.07;;;;;;;15.77;100.00;101033.16;5071408;27;20697;-66
2022/10/18 07:03:16;;;;;;;6.87;4.00;;;;;;;15.95;100.00;101044.16;5091701;28;20194;-67
2022/10/18 07:05:41;;;;;;;6.97;3.87;;;;;;;15.92;100.00;101054.75;5092430;28;20184;-67
2022/10/18 07:08:07;;;;;;;4.87;3.60;;;;;;;15.89;100.00;101060.97;5092052;28;20264;-67
2022/10/18 07:10:32;;;;;;;5.40;3.93;;;;;;;15.85;100.00;101056.03;5083245;28;20626;-67
2022/10/18 07:12:57;;;;;;;4.23;3.50;;;;;;;15.87;100.00;101059.38;5103980;28;20234;-67
2022/10/18 07:15:23;;;;;;;6.53;4.37;;;;;;;15.95;100.00;101057.13;5084387;28;20381;-67
2022/10/18 07:17:49;;;;;;;7.73;4.00;;;;;;;15.90;100.00;101059.19;5104573;28;20180;-68
2022/10/18 07:20:15;;;;;;;6.03;4.00;;;;;;;15.80;100.00;101058.88;5098534;28;20196;-68
2022/10/18 07:22:40;;;;;;;5.30;4.60;;;;;;;15.76;100.00;101063.41;5105702;27;20293;-68
2022/10/18 07:25:06;;;;;;;7.40;4.47;;;;;;;15.94;100.00;101058.91;5091676;28;20176;-68
2022/10/18 07:27:44;;;;;;;5.63;4.17;;;;;;;16.01;100.00;101068.91;5093603;28;20195;-68
2022/10/18 07:30:10;;;;;;;6.13;4.63;;;;;;;15.97;100.00;101078.63;5066114;28;20179;-67
2022/10/18 07:32:36;;;;;;;7.57;4.87;;;;;;;16.22;100.00;101072.75;5085277;28;20188;-69
2022/10/18 07:35:02;;;;;;;6.53;4.50;;;;;;;16.34;100.00;101073.75;5086836;28;20626;-69
2022/10/18 07:37:28;;;;;;;7.03;5.07;;;;;;;16.30;100.00;101069.69;5086835;28;20204;-70
2022/10/18 07:39:53;;;;;;;4.77;4.03;;;;;;;16.16;100.00;101070.53;5089039;28;20180;-69
2022/10/18 07:42:19;;;;;;;9.00;5.27;;;;;;;16.44;100.00;101068.81;5092647;28;20623;-68
2022/10/18 07:44:44;;;;;;;5.23;4.53;;;;;;;16.48;100.00;101072.84;5092229;28;20168;-68
2022/10/18 07:47:09;;;;;;;8.33;5.10;;;;;;;16.25;100.00;101075.16;5091470;28;20654;-68
2022/10/18 07:49:35;;;;;;;5.50;4.80;;;;;;;16.45;100.00;101075.66;5093323;28;20180;-69
2022/10/18 07:52:00;;;;;;;5.63;5.03;;;;;;;16.67;100.00;101072.53;5103192;27;20226;-68
2022/10/18 07:54:25;;;;;;;7.40;4.47;;;;;;;16.93;100.00;101076.03;5097765;27;20365;-63
2022/10/18 07:56:50;;;;;;;7.10;3.83;;;;;;;17.04;100.00;101070.16;5091413;28;20528;-63
2022/10/18 07:59:16;;;;;;;7.57;4.37;;;;;;;17.04;100.00;101070.16;5094698;28;20222;-63
2022/10/18 08:01:41;;;;;;;4.47;3.77;;;;;;;17.15;100.00;101065.97;5096508;27;20242;-65
2022/10/18 08:04:06;;;;;;;4.10;3.63;;;;;;;17.29;100.00;101070.25;5089175;28;20262;-64
2022/10/18 08:06:31;;;;;;;3.73;3.43;;;;;;;17.18;100.00;101077.00;5090574;28;20294;-63
2022/10/18 08:08:57;;;;;;;5.70;3.80;;;;;;;17.21;100.00;101075.97;5091157;28;20188;-64
2022/10/18 08:11:24;;;;;;;6.27;3.90;;;;;;;17.20;100.00;101069.09;5093492;28;21674;-64
2022/10/18 08:13:51;;;;;;;4.17;3.47;;;;;;;17.16;100.00;101068.47;5084759;28;20204;-65
2022/10/18 08:16:22;;;;;;;5.00;3.63;;;;;;;17.16;100.00;101068.47;5088466;28;20658;-63
2022/10/18 08:18:48;;;;;;;4.70;3.30;;;;;;;17.09;100.00;101081.06;5091750;28;20717;-64
2022/10/18 08:21:15;;;;;;;3.63;3.23;;;;;;;17.25;100.00;101080.03;5077249;28;20266;-63
2022/10/18 08:23:40;;;;;;;9.57;3.60;;;;;;;17.37;100.00;101086.19;5089812;28;20267;-62
2022/10/18 08:26:10;;;;;;;4.10;3.27;;;;;;;17.53;100.00;101091.19;5090719;28;20590;-64
2022/10/18 08:28:35;;;;;;;5.90;3.40;;;;;;;17.58;100.00;101091.69;5089275;28;20590;-65
2022/10/18 08:31:05;;;;;;;3.33;3.03;;;;;;;17.36;100.00;101097.50;5089160;28;20317;-62
2022/10/18 08:33:32;;;;;;;4.27;3.27;;;;;;;17.29;100.00;101089.31;5088304;28;20552;-63
2022/10/18 08:35:59;;;;;;;7.40;3.33;;;;;;;17.01;100.00;101095.50;5092271;28;20184;-65
2022/10/18 08:38:24;;;;;;;5.80;3.00;;;;;;;17.16;100.00;101094.47;5093302;28;20190;-63
2022/10/18 08:40:52;;;;;;;5.00;3.17;;;;;;;17.20;100.00;101108.91;5087734;28;20273;-63
2022/10/18 08:43:42;;;;;;;3.30;2.60;;;;;;;17.06;100.00;101104.66;5086483;28;20184;-66
2022/10/18 08:46:11;;;;;;;2.27;2.07;;;;;;;17.11;100.00;101101.75;5088845;28;20484;-65
2022/10/18 08:48:42;;;;;;;2.63;2.43;;;;;;;17.14;100.00;101104.16;5092235;28;20180;-65
2022/10/18 08:51:23;;;;;;;3.00;1.77;;;;;;;16.91;100.00;101108.22;5082622;28;20342;-64
2022/10/18 08:54:11;;;;;;;3.37;2.10;;;;;;;16.96;100.00;101116.59;5088664;28;20180;-65
2022/10/18 08:56:39;;;;;;;2.40;2.20;;;;;;;17.09;100.00;101112.25;5091051;28;20199;-63
2022/10/18 08:59:09;;;;;;;2.53;2.20;;;;;;;16.97;100.00;101109.59;5087574;28;20484;-64
2022/10/18 09:01:48;;;;;;;2.10;2.00;;;;;;;16.92;100.00;101117.72;5093681;28;20215;-64
2022/10/18 09:04:26;;;;;;;3.20;2.47;;;;;;;17.01;100.00;101111.91;5088415;28;20712;-64
2022/10/18 09:07:20;;;;;;;3.03;2.30;;;;;;;17.10;100.00;101121.72;5093047;28;20207;-63
2022/10/18 09:10:03;;;;;;;2.83;2.60;;;;;;;17.19;100.00;101125.47;5090545;28;20176;-64
2022/10/18 09:12:47;;;;;;;4.90;2.73;;;;;;;17.31;100.00;101128.19;5068531;28;20259;-65
2022/10/18 09:15:28;;;;;;;2.97;2.50;;;;;;;17.26;100.00;101125.91;5097131;28;20188;-65
2022/10/18 09:18:19;;;;;;;2.77;2.50;;;;;;;17.23;100.00;101124.34;5094776;28;20176;-64
2022/10/18 09:20:58;;;;;;;2.03;1.83;;;;;;;17.30;100.00;101126.53;5085885;28;20256;-65
2022/10/18 09:23:43;;;;;;;3.87;2.00;;;;;;;17.38;100.00;101122.47;5089780;28;20194;-69
2022/10/18 09:33:13;;;;;;;1.73;1.60;;;;;;;17.37;100.00;101125.19;5078942;28;20781;-68
2022/10/18 09:35:47;;;;;;;2.63;1.10;;;;;;;17.57;100.00;101122.06;5093537;28;20168;-69
2022/10/18 09:38:18;;;;;;;3.17;1.07;;;;;;;17.83;100.00;101119.44;5104810;28;20649;-70
2022/10/18 09:40:56;;;;;;;1.43;1.30;;;;;;;17.88;100.00;101119.13;5091500;28;20665;-69
2022/10/18 09:43:44;;;;;;;1.13;1.03;;;;;;;17.97;100.00;101113.31;5101485;28;20188;-70
2022/10/18 09:46:10;;;;;;;2.50;1.40;;;;;;;17.99;100.00;101114.03;5092444;28;20184;-68
2022/10/18 09:48:48;;;;;;;1.77;1.20;;;;;;;18.20;100.00;101108.28;5094697;28;20191;-69
2022/10/18 09:51:35;;;;;;;1.40;1.30;;;;;;;18.61;100.00;101111.47;5097253;28;20242;-70
2022/10/18 09:54:29;;;;;;;1.17;0.97;;;;;;;19.12;100.00;101102.53;5087854;28;20184;-70
2022/10/18 09:57:06;;;;;;;1.20;1.10;;;;;;;20.04;100.00;101086.81;5093744;28;20195;-70
2022/10/18 09:59:41;;;;;;;1.53;0.70;;;;;;;20.57;100.00;101093.13;5093225;28;20192;-70
2022/10/18 10:02:16;;;;;;;2.67;0.97;;;;;;;21.42;100.00;101084.34;5079824;28;20214;-70
2022/10/18 10:04:42;;;;;;;0.70;0.70;;;;;;;21.82;100.00;101085.34;5086684;28;20184;-71
2022/10/18 10:07:12;;;;;;;1.03;0.77;;;;;;;21.68;100.00;101078.69;5092627;28;20215;-72
2022/10/18 10:09:58;;;;;;;0.90;0.63;;;;;;;22.20;100.00;101085.56;5096032;28;20236;-72
2022/10/18 10:12:32;;;;;;;1.50;0.70;;;;;;;21.77;100.00;101093.59;5099692;27;20243;-71
2022/10/18 10:15:08;;;;;;;0.70;0.70;;;;;;;21.70;100.00;101094.25;5093327;28;20180;-71
2022/10/18 10:17:34;;;;;;;1.10;0.63;;;;;;;21.75;100.00;101099.94;5093356;28;20194;-73
2022/10/18 10:20:04;;;;;;;0.77;0.57;;;;;;;21.92;100.00;101101.09;5091477;28;20603;-73
2022/10/18 10:22:39;;;;;;;0.57;0.57;;;;;;;22.00;100.00;101110.91;5081688;28;20663;-73
2022/10/18 10:25:06;;;;;;;2.07;0.63;;;;;;;22.05;100.00;101120.03;5091788;28;20184;-74
2022/10/18 10:27:52;;;;;;;0.70;0.43;;;;;;;21.62;100.00;101115.03;5090496;28;20212;-74
2022/10/18 10:30:26;;;;;;;1.30;0.70;;;;;;;21.88;100.00;101115.41;5083162;27;20257;-74
2022/10/18 10:32:54;;;;;;;1.63;0.47;;;;;;;21.47;100.00;101125.00;5108300;27;21547;-73
2022/10/18 10:35:35;;;;;;;0.53;0.40;;;;;;;21.25;100.00;101125.00;5095472;28;20183;-73
2022/10/18 10:38:01;;;;;;;0.83;0.83;;;;;;;21.01;100.00;101132.28;5091783;28;20255;-74
2022/10/18 10:40:29;;;;;;;0.90;0.60;;;;;;;20.51;100.00;101140.66;5084037;28;20306;-74
2022/10/18 10:43:03;;;;;;;0.83;0.70;;;;;;;20.03;100.00;101131.34;5088519;28;20184;-73
2022/10/18 10:45:36;;;;;;;0.60;0.60;;;;;;;19.67;100.00;101137.50;5092715;28;20176;-72
2022/10/18 10:48:06;;;;;;;1.30;0.60;;;;;;;19.43;100.00;101137.56;5092194;28;20733;-62
2022/10/18 10:50:48;;;;;;;1.17;0.50;;;;;;;19.44;100.00;101141.84;5084131;28;20805;-61
2022/10/18 10:53:39;;;;;;;2.30;2.00;;;;;;;19.74;100.00;101142.25;5091214;28;20188;-62
2022/10/18 10:56:12;;;;;;;1.23;0.77;;;;;;;19.80;100.00;101152.22;5007771;28;20549;-69
2022/10/18 10:58:40;;;;;;;1.17;0.70;;;;;;;19.62;100.00;101163.13;5008808;28;20636;-72
2022/10/18 11:01:32;;;;;;;0.70;0.70;;;;;;;19.56;100.00;101157.53;4981645;28;20252;-71
2022/10/18 11:04:00;;;;;;;0.73;0.57;;;;;;;19.62;100.00;101150.06;5009165;28;20210;-72
2022/10/18 11:06:39;;;;;;;2.20;1.17;;;;;;;19.40;100.00;101152.63;5007720;28;20250;-74
2022/10/18 11:09:18;;;;;;;5.10;0.60;;;;;;;19.51;100.00;101147.44;5012533;28;20701;-72
2022/10/18 11:12:00;;;;;;;1.40;0.80;;;;;;;19.60;100.00;101148.53;4979564;28;20677;-72
2022/10/18 11:14:33;;;;;;;1.90;0.53;;;;;;;19.75;100.00;101143.91;5006038;28;20223;-71
2022/10/18 11:17:14;;;;;;;1.90;0.90;;;;;;;20.06;100.00;101133.72;4978642;28;20779;-63
2022/10/18 11:19:48;;;;;;;0.70;0.60;;;;;;;20.39;100.00;101135.47;4996935;28;20343;-62
2022/10/18 11:22:20;;;;;;;0.40;0.40;;;;;;;20.56;100.00;101130.66;4990595;28;20237;-62
2022/10/18 11:24:46;;;;;;;3.43;0.50;;;;;;;20.53;100.00;101126.50;4993706;28;20191;-61
2022/10/18 11:27:35;;;;;;;0.40;0.40;;;;;;;20.56;100.00;101131.47;4998255;28;20607;-61
2022/10/18 11:30:25;;;;;;;0.50;0.50;;;;;;;20.60;100.00;101130.28;5013463;28;20183;-62
2022/10/18 11:33:02;;;;;;;0.63;0.40;;;;;;;20.49;100.00;101125.06;4993555;28;20288;-62